KPHF/PHF METAR and TAF weather

Enter ICAO airport designator
Station Type Date Time Source
KPHF METAR 2020/03/31 08:54 UTC NOAA

KPHF 310854Z 05004KT 9SM CLR 10/07 A2995 RMK AO2 SLP142 T01000067 50001


Station Type Date Time Source
KPHF Decoded METAR 2020/03/31 08:54 UTC NOAA

WILLIAMSBURG INTERNATIONAL AIRPORT , VA, United States (KPHF) 37-08N 76-30W 12M
Mar 31, 2020 - 04:54 AM EDT / 2020.03.31 0854 UTC
Wind: from the NE (050 degrees) at 5 MPH (4 KT):0
Visibility: 9 mile(s):0
Sky conditions: clear
Temperature: 50.0 F (10.0 C)
Dew Point: 44.1 F (6.7 C)
Relative Humidity: 79%
Pressure (altimeter): 29.95 in. Hg (1014 hPa)
Pressure tendency: 0.00 inches (0.1 hPa) higher than three hours ago
ob: KPHF 310854Z 05004KT 9SM CLR 10/07 A2995 RMK AO2 SLP142 T01000067 50001
cycle: 9

Station Type Date Time Source
KPHF TAF 2020/03/31 09:10 UTC NOAA

TAF
AMD KPHF 310908Z 3109/0106 05005KT P6SM SCT008 BKN250
FM311600 07007KT P6SM OVC080
FM312100 08009KT P6SM -RA OVC040
FM312200 08009KT P6SM -RA OVC020
FM010100 08009KT 4SM -RA BR OVC008

Example: see airport list